sensor_id;sensor_type;location;lat;lon;timestamp;pressure;altitude;pressure_sealevel;temperature;humidity
11525;BME280;5819;49.648;8.330;2022-10-15T00:02:12;99346.34;;;14.49;100.00
11525;BME280;5819;49.648;8.330;2022-10-15T00:04:39;99337.47;;;14.51;100.00
11525;BME280;5819;49.648;8.330;2022-10-15T00:07:07;99322.59;;;14.52;100.00
11525;BME280;5819;49.648;8.330;2022-10-15T00:09:35;99323.53;;;14.51;100.00
11525;BME280;5819;49.648;8.330;2022-10-15T00:12:04;99327.94;;;14.50;100.00
11525;BME280;5819;49.648;8.330;2022-10-15T00:14:31;99332.59;;;14.58;100.00
11525;BME280;5819;49.648;8.330;2022-10-15T00:17:00;99339.09;;;14.52;100.00
11525;BME280;5819;49.648;8.330;2022-10-15T00:19:28;99334.72;;;14.53;100.00
11525;BME280;5819;49.648;8.330;2022-10-15T00:21:56;99339.00;;;14.54;100.00
11525;BME280;5819;49.648;8.330;2022-10-15T00:24:24;99331.41;;;14.62;100.00
11525;BME280;5819;49.648;8.330;2022-10-15T00:26:52;99332.69;;;14.57;100.00
11525;BME280;5819;49.648;8.330;2022-10-15T00:29:20;99325.81;;;14.56;100.00
11525;BME280;5819;49.648;8.330;2022-10-15T00:31:51;99332.84;;;14.55;100.00
11525;BME280;5819;49.648;8.330;2022-10-15T00:34:21;99331.91;;;14.56;100.00
11525;BME280;5819;49.648;8.330;2022-10-15T00:36:49;99331.06;;;14.56;100.00
11525;BME280;5819;49.648;8.330;2022-10-15T00:39:17;99331.91;;;14.56;100.00
11525;BME280;5819;49.648;8.330;2022-10-15T00:41:45;99331.53;;;14.61;100.00
11525;BME280;5819;49.648;8.330;2022-10-15T00:44:49;99328.31;;;14.57;100.00
11525;BME280;5819;49.648;8.330;2022-10-15T00:47:21;99330.91;;;14.57;100.00
11525;BME280;5819;49.648;8.330;2022-10-15T00:49:55;99328.44;;;14.56;100.00
11525;BME280;5819;49.648;8.330;2022-10-15T00:52:26;99327.34;;;14.58;100.00
11525;BME280;5819;49.648;8.330;2022-10-15T00:55:03;99317.63;;;14.60;100.00
11525;BME280;5819;49.648;8.330;2022-10-15T00:57:32;99318.44;;;14.61;100.00
11525;BME280;5819;49.648;8.330;2022-10-15T01:00:05;99311.66;;;14.58;100.00
11525;BME280;5819;49.648;8.330;2022-10-15T01:02:34;99308.94;;;14.60;100.00
11525;BME280;5819;49.648;8.330;2022-10-15T01:05:04;99312.59;;;14.57;100.00
11525;BME280;5819;49.648;8.330;2022-10-15T01:07:32;99308.19;;;14.58;100.00
11525;BME280;5819;49.648;8.330;2022-10-15T01:10:00;99311.56;;;14.60;100.00
11525;BME280;5819;49.648;8.330;2022-10-15T01:12:38;99303.81;;;14.58;100.00
11525;BME280;5819;49.648;8.330;2022-10-15T01:15:15;99300.34;;;14.58;100.00
11525;BME280;5819;49.648;8.330;2022-10-15T01:17:45;99304.66;;;14.59;100.00
11525;BME280;5819;49.648;8.330;2022-10-15T01:20:31;99311.66;;;14.58;100.00
11525;BME280;5819;49.648;8.330;2022-10-15T01:23:17;99310.59;;;14.61;100.00
11525;BME280;5819;49.648;8.330;2022-10-15T01:26:00;99316.66;;;14.61;100.00
11525;BME280;5819;49.648;8.330;2022-10-15T01:28:41;99315.81;;;14.61;100.00
11525;BME280;5819;49.648;8.330;2022-10-15T01:31:20;99312.38;;;14.60;100.00
11525;BME280;5819;49.648;8.330;2022-10-15T01:33:55;99307.63;;;14.65;100.00
11525;BME280;5819;49.648;8.330;2022-10-15T01:36:33;99305.34;;;14.61;100.00
11525;BME280;5819;49.648;8.330;2022-10-15T01:39:09;99314.78;;;14.63;100.00
11525;BME280;5819;49.648;8.330;2022-10-15T01:41:43;99312.38;;;14.60;100.00
11525;BME280;5819;49.648;8.330;2022-10-15T01:44:17;99317.50;;;14.62;100.00
11525;BME280;5819;49.648;8.330;2022-10-15T01:47:11;99311.31;;;14.63;100.00
11525;BME280;5819;49.648;8.330;2022-10-15T01:49:43;99304.41;;;14.62;100.00
11525;BME280;5819;49.648;8.330;2022-10-15T01:52:15;99304.41;;;14.62;100.00
11525;BME280;5819;49.648;8.330;2022-10-15T01:54:46;99306.19;;;14.61;100.00
11525;BME280;5819;49.648;8.330;2022-10-15T01:57:15;99300.75;;;14.64;100.00
11525;BME280;5819;49.648;8.330;2022-10-15T01:59:44;99299.16;;;14.62;100.00
11525;BME280;5819;49.648;8.330;2022-10-15T02:02:15;99292.25;;;14.61;100.00
11525;BME280;5819;49.648;8.330;2022-10-15T02:04:43;99295.84;;;14.60;100.00
11525;BME280;5819;49.648;8.330;2022-10-15T02:07:20;99297.63;;;14.59;100.00
11525;BME280;5819;49.648;8.330;2022-10-15T02:09:57;99296.78;;;14.59;100.00
11525;BME280;5819;49.648;8.330;2022-10-15T02:12:34;99291.56;;;14.59;100.00
11525;BME280;5819;49.648;8.330;2022-10-15T02:15:12;99275.97;;;14.57;100.00
11525;BME280;5819;49.648;8.330;2022-10-15T02:17:52;99282.16;;;14.56;100.00
11525;BME280;5819;49.648;8.330;2022-10-15T02:20:31;99286.56;;;14.56;100.00
11525;BME280;5819;49.648;8.330;2022-10-15T02:23:05;99299.66;;;14.56;100.00
11525;BME280;5819;49.648;8.330;2022-10-15T02:25:36;99300.34;;;14.58;100.00
11525;BME280;5819;49.648;8.330;2022-10-15T02:28:06;99293.34;;;14.58;100.00
11525;BME280;5819;49.648;8.330;2022-10-15T02:30:36;99297.88;;;14.56;100.00
11525;BME280;5819;49.648;8.330;2022-10-15T02:33:10;99295.34;;;14.55;100.00
11525;BME280;5819;49.648;8.330;2022-10-15T02:35:41;99301.28;;;14.57;100.00
11525;BME280;5819;49.648;8.330;2022-10-15T02:38:11;99301.28;;;14.57;100.00
11525;BME280;5819;49.648;8.330;2022-10-15T02:40:42;99304.88;;;14.56;100.00
11525;BME280;5819;49.648;8.330;2022-10-15T02:43:13;99305.72;;;14.56;100.00
11525;BME280;5819;49.648;8.330;2022-10-15T02:45:41;99309.28;;;14.55;100.00
11525;BME280;5819;49.648;8.330;2022-10-15T02:48:10;99301.53;;;14.53;100.00
11525;BME280;5819;49.648;8.330;2022-10-15T02:50:38;99311.91;;;14.55;100.00
11525;BME280;5819;49.648;8.330;2022-10-15T02:53:06;99320.69;;;14.54;100.00
11525;BME280;5819;49.648;8.330;2022-10-15T02:55:35;99322.38;;;14.55;100.00
11525;BME280;5819;49.648;8.330;2022-10-15T02:58:02;99319.75;;;14.55;100.00
11525;BME280;5819;49.648;8.330;2022-10-15T03:00:30;99316.19;;;14.56;100.00
11525;BME280;5819;49.648;8.330;2022-10-15T03:02:58;99311.91;;;14.55;100.00
11525;BME280;5819;49.648;8.330;2022-10-15T03:05:28;99297.88;;;14.56;100.00
11525;BME280;5819;49.648;8.330;2022-10-15T03:07:58;99306.53;;;14.57;100.00
11525;BME280;5819;49.648;8.330;2022-10-15T03:10:28;99312.72;;;14.56;100.00
11525;BME280;5819;49.648;8.330;2022-10-15T03:13:01;99308.19;;;14.58;100.00
11525;BME280;5819;49.648;8.330;2022-10-15T03:15:29;99309.97;;;14.57;100.00
11525;BME280;5819;49.648;8.330;2022-10-15T03:17:57;99317.22;;;14.53;100.00
11525;BME280;5819;49.648;8.330;2022-10-15T03:20:25;99317.38;;;14.52;100.00
11525;BME280;5819;49.648;8.330;2022-10-15T03:22:54;99310.31;;;14.52;100.00
11525;BME280;5819;49.648;8.330;2022-10-15T03:25:22;99311.16;;;14.53;100.00
11525;BME280;5819;49.648;8.330;2022-10-15T03:27:58;99320.94;;;14.51;100.00
11525;BME280;5819;49.648;8.330;2022-10-15T03:30:34;99319.97;;;14.52;100.00
11525;BME280;5819;49.648;8.330;2022-10-15T03:33:03;99313.06;;;14.51;100.00
11525;BME280;5819;49.648;8.330;2022-10-15T03:35:32;99321.97;;;14.48;100.00
11525;BME280;5819;49.648;8.330;2022-10-15T03:38:01;99316.75;;;14.48;100.00
11525;BME280;5819;49.648;8.330;2022-10-15T03:40:29;99323.16;;;14.44;100.00
11525;BME280;5819;49.648;8.330;2022-10-15T03:43:09;99331.22;;;14.41;100.00
11525;BME280;5819;49.648;8.330;2022-10-15T03:45:37;99333.16;;;14.39;100.00
11525;BME280;5819;49.648;8.330;2022-10-15T03:48:20;99339.31;;;14.38;100.00
11525;BME280;5819;49.648;8.330;2022-10-15T03:50:48;99332.41;;;14.37;100.00
11525;BME280;5819;49.648;8.330;2022-10-15T03:53:17;99339.41;;;14.37;100.00
11525;BME280;5819;49.648;8.330;2022-10-15T03:55:45;99334.09;;;14.38;100.00
11525;BME280;5819;49.648;8.330;2022-10-15T03:58:14;99338.47;;;14.38;100.00
11525;BME280;5819;49.648;8.330;2022-10-15T04:00:48;99337.41;;;14.40;100.00
11525;BME280;5819;49.648;8.330;2022-10-15T04:03:16;99333.84;;;14.41;100.00
11525;BME280;5819;49.648;8.330;2022-10-15T04:05:49;99337.63;;;14.37;100.00
11525;BME280;5819;49.648;8.330;2022-10-15T04:08:24;99342.03;;;14.37;100.00
11525;BME280;5819;49.648;8.330;2022-10-15T04:10:51;99346.44;;;14.36;100.00
11525;BME280;5819;49.648;8.330;2022-10-15T04:13:19;99340.56;;;14.33;100.00
11525;BME280;5819;49.648;8.330;2022-10-15T04:15:47;99346.88;;;14.30;100.00
11525;BME280;5819;49.648;8.330;2022-10-15T04:18:15;99358.41;;;14.28;100.00
11525;BME280;5819;49.648;8.330;2022-10-15T04:20:43;99361.81;;;14.28;100.00
11525;BME280;5819;49.648;8.330;2022-10-15T04:23:19;99355.56;;;14.31;100.00
11525;BME280;5819;49.648;8.330;2022-10-15T04:26:06;99354.41;;;14.35;100.00
11525;BME280;5819;49.648;8.330;2022-10-15T04:28:35;99357.94;;;14.34;100.00
11525;BME280;5819;49.648;8.330;2022-10-15T04:31:04;99355.31;;;14.34;100.00
11525;BME280;5819;49.648;8.330;2022-10-15T04:33:32;99363.41;;;14.31;100.00
11525;BME280;5819;49.648;8.330;2022-10-15T04:36:00;99378.34;;;14.29;100.00
11525;BME280;5819;49.648;8.330;2022-10-15T04:39:05;99368.63;;;14.31;100.00
11525;BME280;5819;49.648;8.330;2022-10-15T04:41:43;99369.47;;;14.31;100.00
11525;BME280;5819;49.648;8.330;2022-10-15T04:44:14;99358.16;;;14.31;100.00
11525;BME280;5819;49.648;8.330;2022-10-15T04:46:48;99357.34;;;14.30;100.00
11525;BME280;5819;49.648;8.330;2022-10-15T04:49:30;99372.19;;;14.30;100.00
11525;BME280;5819;49.648;8.330;2022-10-15T04:52:00;99368.88;;;14.28;100.00
11525;BME280;5819;49.648;8.330;2022-10-15T04:54:35;99371.25;;;14.31;100.00
11525;BME280;5819;49.648;8.330;2022-10-15T04:57:05;99377.19;;;14.33;100.00
11525;BME280;5819;49.648;8.330;2022-10-15T04:59:34;99376.34;;;14.32;100.00
11525;BME280;5819;49.648;8.330;2022-10-15T05:02:20;99383.38;;;14.32;100.00
11525;BME280;5819;49.648;8.330;2022-10-15T05:04:53;99385.81;;;14.35;100.00
11525;BME280;5819;49.648;8.330;2022-10-15T05:07:21;99385.56;;;14.38;100.00
11525;BME280;5819;49.648;8.330;2022-10-15T05:09:51;99382.03;;;14.39;100.00
11525;BME280;5819;49.648;8.330;2022-10-15T05:12:21;99386.31;;;14.40;100.00
11525;BME280;5819;49.648;8.330;2022-10-15T05:14:48;99391.66;;;14.38;100.00
11525;BME280;5819;49.648;8.330;2022-10-15T05:17:22;99387.34;;;14.37;100.00
11525;BME280;5819;49.648;8.330;2022-10-15T05:19:53;99378.66;;;14.37;100.00
11525;BME280;5819;49.648;8.330;2022-10-15T05:22:25;99384.88;;;14.36;100.00
11525;BME280;5819;49.648;8.330;2022-10-15T05:24:57;99385.69;;;14.36;100.00
11525;BME280;5819;49.648;8.330;2022-10-15T05:27:29;99396.03;;;14.38;100.00
11525;BME280;5819;49.648;8.330;2022-10-15T05:29:58;99397.72;;;14.39;100.00
11525;BME280;5819;49.648;8.330;2022-10-15T05:32:34;99400.19;;;14.40;100.00
11525;BME280;5819;49.648;8.330;2022-10-15T05:35:03;99407.13;;;14.41;100.00
11525;BME280;5819;49.648;8.330;2022-10-15T05:37:47;99415.91;;;14.40;100.00
11525;BME280;5819;49.648;8.330;2022-10-15T05:40:16;99419.59;;;14.38;100.00
11525;BME280;5819;49.648;8.330;2022-10-15T05:43:01;99428.38;;;14.37;100.00
11525;BME280;5819;49.648;8.330;2022-10-15T05:45:29;99430.91;;;14.38;100.00
11525;BME280;5819;49.648;8.330;2022-10-15T05:48:03;99434.97;;;14.42;100.00
11525;BME280;5819;49.648;8.330;2022-10-15T05:50:31;99444.59;;;14.42;100.00
11525;BME280;5819;49.648;8.330;2022-10-15T05:53:02;99444.81;;;14.39;100.00
11525;BME280;5819;49.648;8.330;2022-10-15T05:55:51;99439.97;;;14.45;100.00
11525;BME280;5819;49.648;8.330;2022-10-15T05:58:23;99444.25;;;14.46;100.00
11525;BME280;5819;49.648;8.330;2022-10-15T06:00:54;99456.72;;;14.43;100.00
11525;BME280;5819;49.648;8.330;2022-10-15T06:03:22;99453.19;;;14.44;100.00
11525;BME280;5819;49.648;8.330;2022-10-15T06:05:51;99460.91;;;14.45;100.00
11525;BME280;5819;49.648;8.330;2022-10-15T06:08:21;99460.78;;;14.47;100.00
11525;BME280;5819;49.648;8.330;2022-10-15T06:10:53;99462.66;;;14.45;100.00
11525;BME280;5819;49.648;8.330;2022-10-15T06:13:22;99463.66;;;14.44;100.00
11525;BME280;5819;49.648;8.330;2022-10-15T06:15:50;99462.81;;;14.43;100.00
11525;BME280;5819;49.648;8.330;2022-10-15T06:18:18;99456.97;;;14.40;100.00
11525;BME280;5819;49.648;8.330;2022-10-15T06:20:50;99463.22;;;14.37;100.00
11525;BME280;5819;49.648;8.330;2022-10-15T06:23:18;99464.06;;;14.38;100.00
11525;BME280;5819;49.648;8.330;2022-10-15T06:25:46;99470.97;;;14.39;100.00
11525;BME280;5819;49.648;8.330;2022-10-15T06:28:15;99479.53;;;14.41;100.00
11525;BME280;5819;49.648;8.330;2022-10-15T06:30:44;99476.94;;;14.41;100.00
11525;BME280;5819;49.648;8.330;2022-10-15T06:33:12;99481.84;;;14.45;100.00
11525;BME280;5819;49.648;8.330;2022-10-15T06:35:41;99480.34;;;14.54;100.00
11525;BME280;5819;49.648;8.330;2022-10-15T06:38:09;99488.19;;;14.54;100.00
11525;BME280;5819;49.648;8.330;2022-10-15T06:40:37;99497.72;;;14.55;100.00
11525;BME280;5819;49.648;8.330;2022-10-15T06:43:06;99483.47;;;14.59;100.00
11525;BME280;5819;49.648;8.330;2022-10-15T06:45:36;99488.78;;;14.58;100.00
11525;BME280;5819;49.648;8.330;2022-10-15T06:48:09;99491.53;;;14.56;100.00
11525;BME280;5819;49.648;8.330;2022-10-15T06:50:38;99504.00;;;14.52;100.00
11525;BME280;5819;49.648;8.330;2022-10-15T06:53:06;99498.88;;;14.51;100.00
11525;BME280;5819;49.648;8.330;2022-10-15T06:55:34;99501.38;;;14.52;100.00
11525;BME280;5819;49.648;8.330;2022-10-15T06:58:02;99508.41;;;14.52;100.00
11525;BME280;5819;49.648;8.330;2022-10-15T07:00:29;99510.06;;;14.53;100.00
11525;BME280;5819;49.648;8.330;2022-10-15T07:03:02;99503.88;;;14.54;100.00
11525;BME280;5819;49.648;8.330;2022-10-15T07:05:32;99509.03;;;14.56;100.00
11525;BME280;5819;49.648;8.330;2022-10-15T07:08:01;99509.03;;;14.56;100.00
11525;BME280;5819;49.648;8.330;2022-10-15T07:10:29;99517.81;;;14.55;100.00
11525;BME280;5819;49.648;8.330;2022-10-15T07:12:58;99525.56;;;14.56;100.00
11525;BME280;5819;49.648;8.330;2022-10-15T07:15:27;99524.59;;;14.57;100.00
11525;BME280;5819;49.648;8.330;2022-10-15T07:17:55;99522.59;;;14.61;100.00
11525;BME280;5819;49.648;8.330;2022-10-15T07:20:27;99529.41;;;14.63;100.00
11525;BME280;5819;49.648;8.330;2022-10-15T07:23:00;99524.03;;;14.65;100.00
11525;BME280;5819;49.648;8.330;2022-10-15T07:25:29;99523.94;;;14.66;100.00
11525;BME280;5819;49.648;8.330;2022-10-15T07:27:57;99533.34;;;14.69;100.00
11525;BME280;5819;49.648;8.330;2022-10-15T07:30:25;99520.06;;;14.72;100.00
11525;BME280;5819;49.648;8.330;2022-10-15T07:32:54;99512.81;;;14.75;100.00
11525;BME280;5819;49.648;8.330;2022-10-15T07:35:22;99516.97;;;14.78;100.00
11525;BME280;5819;49.648;8.330;2022-10-15T07:37:50;99534.47;;;14.77;100.00
11525;BME280;5819;49.648;8.330;2022-10-15T07:40:19;99543.91;;;14.80;100.00
11525;BME280;5819;49.648;8.330;2022-10-15T07:42:51;99538.66;;;14.80;100.00
11525;BME280;5819;49.648;8.330;2022-10-15T07:45:20;99534.97;;;14.82;100.00
11525;BME280;5819;49.648;8.330;2022-10-15T07:47:48;99537.50;;;14.84;100.00
11525;BME280;5819;49.648;8.330;2022-10-15T07:50:16;99533.44;;;14.80;100.00
11525;BME280;5819;49.648;8.330;2022-10-15T07:52:45;99537.00;;;14.79;100.00
11525;BME280;5819;49.648;8.330;2022-10-15T07:55:13;99546.53;;;14.80;100.00
11525;BME280;5819;49.648;8.330;2022-10-15T07:57:42;99539.50;;;14.80;100.00
11525;BME280;5819;49.648;8.330;2022-10-15T08:00:11;99542.59;;;14.85;100.00
11525;BME280;5819;49.648;8.330;2022-10-15T08:02:38;99543.34;;;14.87;100.00
11525;BME280;5819;49.648;8.330;2022-10-15T08:05:07;99549.19;;;14.91;100.00
11525;BME280;5819;49.648;8.330;2022-10-15T08:07:35;99554.19;;;14.94;100.00
11525;BME280;5819;49.648;8.330;2022-10-15T08:10:09;99552.19;;;14.97;100.00
11525;BME280;5819;49.648;8.330;2022-10-15T08:12:38;99554.56;;;15.00;100.00
11525;BME280;5819;49.648;8.330;2022-10-15T08:15:08;99549.22;;;15.02;100.00
11525;BME280;5819;49.648;8.330;2022-10-15T08:17:36;99547.97;;;15.08;100.00
11525;BME280;5819;49.648;8.330;2022-10-15T08:20:05;99555.59;;;15.11;100.00
11525;BME280;5819;49.648;8.330;2022-10-15T08:22:33;99557.13;;;15.13;100.00
11525;BME280;5819;49.648;8.330;2022-10-15T08:25:01;99561.09;;;15.19;100.00
11525;BME280;5819;49.648;8.330;2022-10-15T08:27:28;99562.19;;;15.27;100.00
11525;BME280;5819;49.648;8.330;2022-10-15T08:29:56;99560.88;;;15.33;100.00
11525;BME280;5819;49.648;8.330;2022-10-15T08:32:25;99560.09;;;15.43;100.00
11525;BME280;5819;49.648;8.330;2022-10-15T08:34:53;99549.44;;;15.58;100.00
11525;BME280;5819;49.648;8.330;2022-10-15T08:37:20;99550.63;;;15.65;100.00
11525;BME280;5819;49.648;8.330;2022-10-15T08:39:48;99549.81;;;15.64;100.00
11525;BME280;5819;49.648;8.330;2022-10-15T08:42:19;99539.78;;;15.69;100.00
11525;BME280;5819;49.648;8.330;2022-10-15T08:44:50;99545.28;;;15.66;100.00
11525;BME280;5819;49.648;8.330;2022-10-15T08:47:28;99536.38;;;15.80;100.00
11525;BME280;5819;49.648;8.330;2022-10-15T08:50:00;99542.44;;;16.03;100.00
11525;BME280;5819;49.648;8.330;2022-10-15T08:52:38;99537.44;;;16.22;100.00
11525;BME280;5819;49.648;8.330;2022-10-15T08:55:09;99535.41;;;16.36;100.00
11525;BME280;5819;49.648;8.330;2022-10-15T08:57:42;99536.66;;;16.53;100.00
11525;BME280;5819;49.648;8.330;2022-10-15T09:00:17;99540.38;;;16.62;100.00
11525;BME280;5819;49.648;8.330;2022-10-15T09:02:54;99544.69;;;16.63;100.00
11525;BME280;5819;49.648;8.330;2022-10-15T09:05:29;99547.31;;;16.63;100.00
11525;BME280;5819;49.648;8.330;2022-10-15T09:08:04;99541.06;;;16.75;100.00
11525;BME280;5819;49.648;8.330;2022-10-15T09:10:42;99545.88;;;16.59;100.00
11525;BME280;5819;49.648;8.330;2022-10-15T09:13:19;99549.56;;;16.45;100.00
11525;BME280;5819;49.648;8.330;2022-10-15T09:15:53;99552.94;;;16.36;100.00
11525;BME280;5819;49.648;8.330;2022-10-15T09:18:29;99559.25;;;16.22;100.00
11525;BME280;5819;49.648;8.330;2022-10-15T09:20:59;99562.22;;;16.29;100.00
11525;BME280;5819;49.648;8.330;2022-10-15T09:23:28;99563.56;;;16.23;100.00
11525;BME280;5819;49.648;8.330;2022-10-15T09:26:01;99565.25;;;16.24;100.00
11525;BME280;5819;49.648;8.330;2022-10-15T09:28:37;99564.88;;;16.18;100.00
11525;BME280;5819;49.648;8.330;2022-10-15T09:31:09;99564.16;;;16.16;100.00
11525;BME280;5819;49.648;8.330;2022-10-15T09:33:44;99565.34;;;16.12;100.00
11525;BME280;5819;49.648;8.330;2022-10-15T09:36:22;99558.78;;;16.06;100.00
11525;BME280;5819;49.648;8.330;2022-10-15T09:38:59;99568.69;;;16.03;100.00
11525;BME280;5819;49.648;8.330;2022-10-15T09:41:38;99567.59;;;16.05;100.00
11525;BME280;5819;49.648;8.330;2022-10-15T09:44:13;99571.06;;;16.06;100.00
11525;BME280;5819;49.648;8.330;2022-10-15T09:46:48;99573.59;;;16.07;100.00
11525;BME280;5819;49.648;8.330;2022-10-15T09:49:20;99578.00;;;16.07;100.00
11525;BME280;5819;49.648;8.330;2022-10-15T09:51:57;99580.84;;;16.15;100.00
11525;BME280;5819;49.648;8.330;2022-10-15T09:54:37;99576.44;;;16.15;100.00
11525;BME280;5819;49.648;8.330;2022-10-15T09:57:09;99577.28;;;16.27;100.00
11525;BME280;5819;49.648;8.330;2022-10-15T09:59:51;99579.91;;;16.27;100.00
11525;BME280;5819;49.648;8.330;2022-10-15T10:02:21;99574.78;;;16.36;100.00
11525;BME280;5819;49.648;8.330;2022-10-15T10:04:52;99576.91;;;16.43;100.00
11525;BME280;5819;49.648;8.330;2022-10-15T10:07:28;99584.19;;;16.72;100.00
11525;BME280;5819;49.648;8.330;2022-10-15T10:09:58;99591.47;;;16.69;100.00
11525;BME280;5819;49.648;8.330;2022-10-15T10:12:30;99583.81;;;16.66;100.00
11525;BME280;5819;49.648;8.330;2022-10-15T10:15:00;99584.19;;;16.61;100.00
11525;BME280;5819;49.648;8.330;2022-10-15T10:17:29;99582.66;;;16.59;100.00
11525;BME280;5819;49.648;8.330;2022-10-15T10:20:17;99585.50;;;16.56;100.00
11525;BME280;5819;49.648;8.330;2022-10-15T10:22:46;99589.19;;;16.53;100.00
11525;BME280;5819;49.648;8.330;2022-10-15T10:25:29;99597.44;;;16.49;100.00
11525;BME280;5819;49.648;8.330;2022-10-15T10:28:03;99600.44;;;16.44;100.00
11525;BME280;5819;49.648;8.330;2022-10-15T10:30:33;99607.09;;;16.37;100.00
11525;BME280;5819;49.648;8.330;2022-10-15T10:33:03;99611.28;;;16.39;100.00
11525;BME280;5819;49.648;8.330;2022-10-15T10:35:35;99602.69;;;16.37;100.00
11525;BME280;5819;49.648;8.330;2022-10-15T10:38:18;99603.66;;;16.36;100.00
11525;BME280;5819;49.648;8.330;2022-10-15T10:40:49;99608.06;;;16.36;100.00
11525;BME280;5819;49.648;8.330;2022-10-15T10:43:20;99600.19;;;16.36;100.00
11525;BME280;5819;49.648;8.330;2022-10-15T10:45:55;99582.19;;;16.65;100.00
11525;BME280;5819;49.648;8.330;2022-10-15T10:48:26;99571.94;;;16.94;100.00
11525;BME280;5819;49.648;8.330;2022-10-15T10:51:08;99570.16;;;16.94;100.00
11525;BME280;5819;49.648;8.330;2022-10-15T10:53:47;99572.06;;;16.92;100.00
11525;BME280;5819;49.648;8.330;2022-10-15T10:56:19;99569.59;;;16.79;100.00
11525;BME280;5819;49.648;8.330;2022-10-15T10:58:53;99575.34;;;16.73;100.00
11525;BME280;5819;49.648;8.330;2022-10-15T11:01:22;99579.66;;;16.63;100.00
11525;BME280;5819;49.648;8.330;2022-10-15T11:03:50;99578.34;;;16.69;100.00
11525;BME280;5819;49.648;8.330;2022-10-15T11:06:50;99573.91;;;16.80;100.00
11525;BME280;5819;49.648;8.330;2022-10-15T11:09:36;99583.72;;;16.67;100.00
11525;BME280;5819;49.648;8.330;2022-10-15T11:12:18;99583.34;;;16.72;100.00
11525;BME280;5819;49.648;8.330;2022-10-15T11:14:54;99582.84;;;16.78;100.00
11525;BME280;5819;49.648;8.330;2022-10-15T11:17:34;99578.09;;;16.72;100.00
11525;BME280;5819;49.648;8.330;2022-10-15T11:20:17;99573.59;;;16.95;100.00
11525;BME280;5819;49.648;8.330;2022-10-15T11:23:22;99574.56;;;17.05;100.00
11525;BME280;5819;49.648;8.330;2022-10-15T11:25:59;99565.94;;;17.03;100.00
11525;BME280;5819;49.648;8.330;2022-10-15T11:28:44;99568.81;;;17.00;100.00
11525;BME280;5819;49.648;8.330;2022-10-15T11:31:20;99558.91;;;17.03;100.00
11525;BME280;5819;49.648;8.330;2022-10-15T11:34:03;99569.66;;;17.00;100.00
11525;BME280;5819;49.648;8.330;2022-10-15T11:36:43;99575.88;;;16.99;100.00
11525;BME280;5819;49.648;8.330;2022-10-15T11:39:35;99571.34;;;17.22;100.00
11525;BME280;5819;49.648;8.330;2022-10-15T11:42:16;99570.91;;;17.17;100.00
11525;BME280;5819;49.648;8.330;2022-10-15T11:45:02;99577.38;;;17.13;100.00
11525;BME280;5819;49.648;8.330;2022-10-15T11:47:45;99577.53;;;17.32;100.00
11525;BME280;5819;49.648;8.330;2022-10-15T11:50:27;99587.69;;;17.25;100.00
11525;BME280;5819;49.648;8.330;2022-10-15T11:53:17;99581.63;;;17.25;100.00
11525;BME280;5819;49.648;8.330;2022-10-15T11:55:56;99586.34;;;17.10;100.00
11525;BME280;5819;49.648;8.330;2022-10-15T11:58:31;99592.31;;;17.12;100.00
11525;BME280;5819;49.648;8.330;2022-10-15T12:01:05;99595.59;;;17.25;100.00
11525;BME280;5819;49.648;8.330;2022-10-15T12:03:41;99626.41;;;17.35;100.00
11525;BME280;5819;49.648;8.330;2022-10-15T12:06:16;99633.28;;;17.47;100.00
11525;BME280;5819;49.648;8.330;2022-10-15T12:08:45;99656.09;;;17.46;100.00
11525;BME280;5819;49.648;8.330;2022-10-15T12:11:27;99655.47;;;17.65;100.00
11525;BME280;5819;49.648;8.330;2022-10-15T12:14:00;99670.00;;;17.80;100.00
11525;BME280;5819;49.648;8.330;2022-10-15T12:16:34;99659.41;;;17.91;100.00
11525;BME280;5819;49.648;8.330;2022-10-15T12:19:11;99662.94;;;18.01;100.00
11525;BME280;5819;49.648;8.330;2022-10-15T12:21:43;99674.22;;;18.13;100.00
11525;BME280;5819;49.648;8.330;2022-10-15T12:24:50;99664.88;;;18.30;100.00
11525;BME280;5819;49.648;8.330;2022-10-15T12:27:26;99674.22;;;18.13;100.00
11525;BME280;5819;49.648;8.330;2022-10-15T12:30:18;99677.75;;;18.02;100.00
11525;BME280;5819;49.648;8.330;2022-10-15T12:32:48;99664.72;;;18.01;100.00
11525;BME280;5819;49.648;8.330;2022-10-15T12:35:34;99663.13;;;17.89;100.00
11525;BME280;5819;49.648;8.330;2022-10-15T12:38:23;99671.06;;;17.98;100.00
11525;BME280;5819;49.648;8.330;2022-10-15T12:40:59;99665.94;;;17.97;100.00
11525;BME280;5819;49.648;8.330;2022-10-15T12:43:34;99662.72;;;18.14;100.00
11525;BME280;5819;49.648;8.330;2022-10-15T12:46:04;99656.75;;;18.33;100.00
11525;BME280;5819;49.648;8.330;2022-10-15T12:48:37;99652.16;;;18.35;100.00
11525;BME280;5819;49.648;8.330;2022-10-15T12:51:38;99644.13;;;18.36;100.00
11525;BME280;5819;49.648;8.330;2022-10-15T12:54:31;99649.69;;;18.33;100.00
11525;BME280;5819;49.648;8.330;2022-10-15T12:56:59;99653.78;;;18.26;100.00
11525;BME280;5819;49.648;8.330;2022-10-15T12:59:56;99657.91;;;18.19;100.00
11525;BME280;5819;49.648;8.330;2022-10-15T13:02:33;99652.69;;;18.29;100.00
11525;BME280;5819;49.648;8.330;2022-10-15T13:05:02;99654.06;;;18.02;100.00
11525;BME280;5819;49.648;8.330;2022-10-15T13:07:31;99650.16;;;17.97;100.00
11525;BME280;5819;49.648;8.330;2022-10-15T13:10:01;99645.47;;;18.00;100.00
11525;BME280;5819;49.648;8.330;2022-10-15T13:12:29;99648.22;;;17.99;100.00
11525;BME280;5819;49.648;8.330;2022-10-15T13:15:03;99646.75;;;17.85;100.00
11525;BME280;5819;49.648;8.330;2022-10-15T13:17:32;99645.94;;;17.85;100.00
11525;BME280;5819;49.648;8.330;2022-10-15T13:20:03;99645.53;;;17.89;100.00
11525;BME280;5819;49.648;8.330;2022-10-15T13:22:34;99655.72;;;17.83;100.00
11525;BME280;5819;49.648;8.330;2022-10-15T13:25:03;99655.03;;;17.81;100.00
11525;BME280;5819;49.648;8.330;2022-10-15T13:27:32;99658.16;;;17.74;100.00
11525;BME280;5819;49.648;8.330;2022-10-15T13:30:06;99646.94;;;17.72;100.00
11525;BME280;5819;49.648;8.330;2022-10-15T13:32:41;99645.38;;;17.70;100.00